sensor_id;sensor_type;location;lat;lon;timestamp;P1;durP1;ratioP1;P2;durP2;ratioP2
51485;SDS011;37565;51.352;6.412;2022-11-15T00:01:07;32.55;;;20.58;;
51485;SDS011;37565;51.352;6.412;2022-11-15T00:03:35;36.70;;;21.17;;
51485;SDS011;37565;51.352;6.412;2022-11-15T00:06:04;26.95;;;17.50;;
51485;SDS011;37565;51.352;6.412;2022-11-15T00:08:32;28.30;;;17.65;;
51485;SDS011;37565;51.352;6.412;2022-11-15T00:11:00;30.23;;;17.65;;
51485;SDS011;37565;51.352;6.412;2022-11-15T00:13:29;28.65;;;17.65;;
51485;SDS011;37565;51.352;6.412;2022-11-15T00:16:00;26.83;;;16.63;;
51485;SDS011;37565;51.352;6.412;2022-11-15T00:18:28;29.98;;;17.02;;
51485;SDS011;37565;51.352;6.412;2022-11-15T00:21:02;29.85;;;17.00;;
51485;SDS011;37565;51.352;6.412;2022-11-15T00:23:31;24.70;;;15.80;;
51485;SDS011;37565;51.352;6.412;2022-11-15T00:26:00;24.17;;;14.93;;
51485;SDS011;37565;51.352;6.412;2022-11-15T00:28:28;25.38;;;14.82;;
51485;SDS011;37565;51.352;6.412;2022-11-15T00:31:00;22.95;;;14.57;;
51485;SDS011;37565;51.352;6.412;2022-11-15T00:33:29;24.27;;;15.05;;
51485;SDS011;37565;51.352;6.412;2022-11-15T00:36:00;22.35;;;14.50;;
51485;SDS011;37565;51.352;6.412;2022-11-15T00:38:30;24.95;;;14.32;;
51485;SDS011;37565;51.352;6.412;2022-11-15T00:41:00;21.75;;;14.20;;
51485;SDS011;37565;51.352;6.412;2022-11-15T00:43:34;22.35;;;14.52;;
51485;SDS011;37565;51.352;6.412;2022-11-15T00:46:04;20.17;;;13.00;;
51485;SDS011;37565;51.352;6.412;2022-11-15T00:48:34;22.58;;;13.30;;
51485;SDS011;37565;51.352;6.412;2022-11-15T00:51:02;20.05;;;13.13;;
51485;SDS011;37565;51.352;6.412;2022-11-15T00:53:30;21.88;;;12.70;;
51485;SDS011;37565;51.352;6.412;2022-11-15T00:55:58;18.58;;;12.98;;
51485;SDS011;37565;51.352;6.412;2022-11-15T00:58:26;22.45;;;12.65;;
51485;SDS011;37565;51.352;6.412;2022-11-15T01:00:54;17.15;;;12.15;;
51485;SDS011;37565;51.352;6.412;2022-11-15T01:03:23;18.80;;;12.68;;
51485;SDS011;37565;51.352;6.412;2022-11-15T01:05:51;20.42;;;12.43;;
51485;SDS011;37565;51.352;6.412;2022-11-15T01:08:19;16.70;;;11.63;;
51485;SDS011;37565;51.352;6.412;2022-11-15T01:10:47;17.13;;;12.02;;
51485;SDS011;37565;51.352;6.412;2022-11-15T01:13:15;19.50;;;12.55;;
51485;SDS011;37565;51.352;6.412;2022-11-15T01:15:43;18.08;;;11.25;;
51485;SDS011;37565;51.352;6.412;2022-11-15T01:18:11;17.73;;;11.45;;
51485;SDS011;37565;51.352;6.412;2022-11-15T01:20:41;15.25;;;11.32;;
51485;SDS011;37565;51.352;6.412;2022-11-15T01:23:10;18.52;;;11.55;;
51485;SDS011;37565;51.352;6.412;2022-11-15T01:25:37;16.75;;;11.32;;
51485;SDS011;37565;51.352;6.412;2022-11-15T01:28:05;18.80;;;11.48;;
51485;SDS011;37565;51.352;6.412;2022-11-15T01:30:33;18.25;;;11.35;;
51485;SDS011;37565;51.352;6.412;2022-11-15T01:33:03;19.73;;;11.18;;
51485;SDS011;37565;51.352;6.412;2022-11-15T01:35:31;18.10;;;11.57;;
51485;SDS011;37565;51.352;6.412;2022-11-15T01:38:00;16.20;;;10.38;;
51485;SDS011;37565;51.352;6.412;2022-11-15T01:40:28;15.00;;;11.13;;
51485;SDS011;37565;51.352;6.412;2022-11-15T01:42:56;16.58;;;11.40;;
51485;SDS011;37565;51.352;6.412;2022-11-15T01:45:24;15.82;;;10.48;;
51485;SDS011;37565;51.352;6.412;2022-11-15T01:47:52;17.52;;;11.00;;
51485;SDS011;37565;51.352;6.412;2022-11-15T01:50:23;16.58;;;10.68;;
51485;SDS011;37565;51.352;6.412;2022-11-15T01:52:55;15.65;;;11.38;;
51485;SDS011;37565;51.352;6.412;2022-11-15T01:55:25;15.90;;;11.05;;
51485;SDS011;37565;51.352;6.412;2022-11-15T01:57:55;15.10;;;10.07;;
51485;SDS011;37565;51.352;6.412;2022-11-15T02:00:27;16.85;;;10.70;;
51485;SDS011;37565;51.352;6.412;2022-11-15T02:02:56;15.93;;;10.68;;
51485;SDS011;37565;51.352;6.412;2022-11-15T02:05:24;14.70;;;10.40;;
51485;SDS011;37565;51.352;6.412;2022-11-15T02:07:52;14.38;;;9.75;;
51485;SDS011;37565;51.352;6.412;2022-11-15T02:10:21;14.43;;;9.85;;
51485;SDS011;37565;51.352;6.412;2022-11-15T02:12:52;15.35;;;9.93;;
51485;SDS011;37565;51.352;6.412;2022-11-15T02:15:22;16.80;;;10.75;;
51485;SDS011;37565;51.352;6.412;2022-11-15T02:18:00;14.98;;;9.88;;
51485;SDS011;37565;51.352;6.412;2022-11-15T02:20:43;15.75;;;9.85;;
51485;SDS011;37565;51.352;6.412;2022-11-15T02:23:31;13.35;;;9.95;;
51485;SDS011;37565;51.352;6.412;2022-11-15T02:26:33;14.45;;;10.43;;
51485;SDS011;37565;51.352;6.412;2022-11-15T02:29:23;14.90;;;10.27;;
51485;SDS011;37565;51.352;6.412;2022-11-15T02:32:04;14.85;;;9.63;;
51485;SDS011;37565;51.352;6.412;2022-11-15T02:34:35;13.70;;;9.52;;
51485;SDS011;37565;51.352;6.412;2022-11-15T02:37:15;15.48;;;8.70;;
51485;SDS011;37565;51.352;6.412;2022-11-15T02:39:50;12.80;;;8.75;;
51485;SDS011;37565;51.352;6.412;2022-11-15T02:42:25;11.30;;;8.10;;
51485;SDS011;37565;51.352;6.412;2022-11-15T02:47:59;11.23;;;8.40;;
51485;SDS011;37565;51.352;6.412;2022-11-15T02:50:31;12.90;;;8.48;;
51485;SDS011;37565;51.352;6.412;2022-11-15T02:53:00;13.50;;;8.45;;
51485;SDS011;37565;51.352;6.412;2022-11-15T02:55:29;11.25;;;7.72;;
51485;SDS011;37565;51.352;6.412;2022-11-15T02:58:03;11.40;;;8.18;;
51485;SDS011;37565;51.352;6.412;2022-11-15T03:00:43;10.55;;;7.45;;
51485;SDS011;37565;51.352;6.412;2022-11-15T03:03:20;11.23;;;7.97;;
51485;SDS011;37565;51.352;6.412;2022-11-15T03:06:00;12.02;;;7.80;;
51485;SDS011;37565;51.352;6.412;2022-11-15T03:08:37;11.15;;;7.45;;
51485;SDS011;37565;51.352;6.412;2022-11-15T03:11:21;10.40;;;7.32;;
51485;SDS011;37565;51.352;6.412;2022-11-15T03:13:53;11.32;;;7.90;;
51485;SDS011;37565;51.352;6.412;2022-11-15T03:16:26;11.90;;;7.35;;
51485;SDS011;37565;51.352;6.412;2022-11-15T03:19:02;9.35;;;6.82;;
51485;SDS011;37565;51.352;6.412;2022-11-15T03:21:34;10.77;;;7.88;;
51485;SDS011;37565;51.352;6.412;2022-11-15T03:24:05;9.40;;;6.80;;
51485;SDS011;37565;51.352;6.412;2022-11-15T03:26:35;9.10;;;6.60;;
51485;SDS011;37565;51.352;6.412;2022-11-15T03:29:07;9.95;;;7.47;;
51485;SDS011;37565;51.352;6.412;2022-11-15T03:31:41;11.75;;;6.95;;
51485;SDS011;37565;51.352;6.412;2022-11-15T03:34:20;11.32;;;6.93;;
51485;SDS011;37565;51.352;6.412;2022-11-15T03:36:52;9.20;;;6.72;;
51485;SDS011;37565;51.352;6.412;2022-11-15T03:39:21;10.20;;;6.57;;
51485;SDS011;37565;51.352;6.412;2022-11-15T03:41:50;8.93;;;6.97;;
51485;SDS011;37565;51.352;6.412;2022-11-15T03:44:28;10.35;;;6.80;;
51485;SDS011;37565;51.352;6.412;2022-11-15T03:47:06;7.60;;;5.95;;
51485;SDS011;37565;51.352;6.412;2022-11-15T03:49:39;9.50;;;6.43;;
51485;SDS011;37565;51.352;6.412;2022-11-15T03:52:11;6.65;;;5.82;;
51485;SDS011;37565;51.352;6.412;2022-11-15T03:54:47;7.95;;;5.72;;
51485;SDS011;37565;51.352;6.412;2022-11-15T03:57:16;8.73;;;5.70;;
51485;SDS011;37565;51.352;6.412;2022-11-15T03:59:44;10.48;;;6.22;;
51485;SDS011;37565;51.352;6.412;2022-11-15T04:02:12;8.10;;;6.40;;
51485;SDS011;37565;51.352;6.412;2022-11-15T04:04:42;8.30;;;5.70;;
51485;SDS011;37565;51.352;6.412;2022-11-15T04:07:10;9.60;;;6.20;;
51485;SDS011;37565;51.352;6.412;2022-11-15T04:09:38;7.60;;;5.93;;
51485;SDS011;37565;51.352;6.412;2022-11-15T04:12:20;8.52;;;6.10;;
51485;SDS011;37565;51.352;6.412;2022-11-15T04:14:57;9.95;;;5.50;;
51485;SDS011;37565;51.352;6.412;2022-11-15T04:17:36;7.57;;;5.85;;
51485;SDS011;37565;51.352;6.412;2022-11-15T04:20:08;6.45;;;5.57;;
51485;SDS011;37565;51.352;6.412;2022-11-15T04:22:56;7.88;;;5.40;;
51485;SDS011;37565;51.352;6.412;2022-11-15T04:25:42;9.63;;;5.43;;
51485;SDS011;37565;51.352;6.412;2022-11-15T04:28:11;6.53;;;5.25;;
51485;SDS011;37565;51.352;6.412;2022-11-15T04:30:39;7.65;;;5.93;;
51485;SDS011;37565;51.352;6.412;2022-11-15T04:33:07;6.65;;;5.35;;
51485;SDS011;37565;51.352;6.412;2022-11-15T04:35:36;6.72;;;5.40;;
51485;SDS011;37565;51.352;6.412;2022-11-15T04:38:05;6.18;;;5.15;;
51485;SDS011;37565;51.352;6.412;2022-11-15T04:40:34;7.28;;;5.55;;
51485;SDS011;37565;51.352;6.412;2022-11-15T04:43:03;7.00;;;5.80;;
51485;SDS011;37565;51.352;6.412;2022-11-15T04:45:31;6.25;;;5.22;;
51485;SDS011;37565;51.352;6.412;2022-11-15T04:47:59;5.63;;;4.97;;
51485;SDS011;37565;51.352;6.412;2022-11-15T04:50:27;7.82;;;5.80;;
51485;SDS011;37565;51.352;6.412;2022-11-15T04:52:56;7.30;;;5.30;;
51485;SDS011;37565;51.352;6.412;2022-11-15T04:55:24;6.35;;;5.00;;
51485;SDS011;37565;51.352;6.412;2022-11-15T04:57:58;5.50;;;4.70;;
51485;SDS011;37565;51.352;6.412;2022-11-15T05:00:26;8.40;;;5.75;;
51485;SDS011;37565;51.352;6.412;2022-11-15T05:02:55;6.50;;;4.95;;
51485;SDS011;37565;51.352;6.412;2022-11-15T05:05:41;7.35;;;5.70;;
51485;SDS011;37565;51.352;6.412;2022-11-15T05:08:10;6.75;;;5.05;;
51485;SDS011;37565;51.352;6.412;2022-11-15T05:10:38;6.43;;;5.13;;
51485;SDS011;37565;51.352;6.412;2022-11-15T05:13:06;5.65;;;5.13;;
51485;SDS011;37565;51.352;6.412;2022-11-15T05:15:34;6.72;;;5.03;;
51485;SDS011;37565;51.352;6.412;2022-11-15T05:18:02;7.53;;;5.07;;
51485;SDS011;37565;51.352;6.412;2022-11-15T05:20:30;6.05;;;4.75;;
51485;SDS011;37565;51.352;6.412;2022-11-15T05:22:58;5.78;;;4.65;;
51485;SDS011;37565;51.352;6.412;2022-11-15T05:25:27;6.78;;;4.53;;
51485;SDS011;37565;51.352;6.412;2022-11-15T05:27:55;6.32;;;4.05;;
51485;SDS011;37565;51.352;6.412;2022-11-15T05:30:23;7.90;;;5.13;;
51485;SDS011;37565;51.352;6.412;2022-11-15T05:32:51;6.35;;;5.22;;
51485;SDS011;37565;51.352;6.412;2022-11-15T05:35:25;5.93;;;4.72;;
51485;SDS011;37565;51.352;6.412;2022-11-15T05:37:58;8.00;;;4.88;;
51485;SDS011;37565;51.352;6.412;2022-11-15T05:40:27;7.43;;;5.13;;
51485;SDS011;37565;51.352;6.412;2022-11-15T05:42:57;5.88;;;4.32;;
51485;SDS011;37565;51.352;6.412;2022-11-15T05:45:27;6.82;;;5.00;;
51485;SDS011;37565;51.352;6.412;2022-11-15T05:47:56;6.07;;;4.43;;
51485;SDS011;37565;51.352;6.412;2022-11-15T05:50:26;6.18;;;4.53;;
51485;SDS011;37565;51.352;6.412;2022-11-15T05:52:54;5.88;;;4.93;;
51485;SDS011;37565;51.352;6.412;2022-11-15T05:55:31;5.90;;;4.45;;
51485;SDS011;37565;51.352;6.412;2022-11-15T05:57:59;5.70;;;5.10;;
51485;SDS011;37565;51.352;6.412;2022-11-15T06:00:28;5.93;;;4.78;;
51485;SDS011;37565;51.352;6.412;2022-11-15T06:02:56;5.68;;;4.75;;
51485;SDS011;37565;51.352;6.412;2022-11-15T06:05:24;4.50;;;4.00;;
51485;SDS011;37565;51.352;6.412;2022-11-15T06:07:52;5.32;;;4.78;;
51485;SDS011;37565;51.352;6.412;2022-11-15T06:10:19;5.88;;;4.43;;
51485;SDS011;37565;51.352;6.412;2022-11-15T06:12:49;5.60;;;4.65;;
51485;SDS011;37565;51.352;6.412;2022-11-15T06:15:24;5.30;;;4.25;;
51485;SDS011;37565;51.352;6.412;2022-11-15T06:17:52;5.28;;;4.03;;
51485;SDS011;37565;51.352;6.412;2022-11-15T06:20:23;4.97;;;4.22;;
51485;SDS011;37565;51.352;6.412;2022-11-15T06:22:55;6.85;;;4.35;;
51485;SDS011;37565;51.352;6.412;2022-11-15T06:25:24;5.70;;;4.30;;
51485;SDS011;37565;51.352;6.412;2022-11-15T06:27:54;5.93;;;4.45;;
51485;SDS011;37565;51.352;6.412;2022-11-15T06:30:23;4.93;;;4.47;;
51485;SDS011;37565;51.352;6.412;2022-11-15T06:32:52;6.57;;;4.60;;
51485;SDS011;37565;51.352;6.412;2022-11-15T06:35:26;4.25;;;3.85;;
51485;SDS011;37565;51.352;6.412;2022-11-15T06:37:55;5.13;;;4.35;;
51485;SDS011;37565;51.352;6.412;2022-11-15T06:40:23;5.40;;;4.25;;
51485;SDS011;37565;51.352;6.412;2022-11-15T06:42:54;6.72;;;4.25;;
51485;SDS011;37565;51.352;6.412;2022-11-15T06:45:25;8.35;;;4.15;;
51485;SDS011;37565;51.352;6.412;2022-11-15T06:47:53;4.65;;;4.15;;
51485;SDS011;37565;51.352;6.412;2022-11-15T06:50:21;4.45;;;4.03;;
51485;SDS011;37565;51.352;6.412;2022-11-15T06:52:49;5.70;;;3.75;;
51485;SDS011;37565;51.352;6.412;2022-11-15T06:55:17;4.60;;;4.20;;
51485;SDS011;37565;51.352;6.412;2022-11-15T06:57:48;4.03;;;3.63;;
51485;SDS011;37565;51.352;6.412;2022-11-15T07:00:19;6.65;;;4.55;;
51485;SDS011;37565;51.352;6.412;2022-11-15T07:02:48;4.40;;;4.00;;
51485;SDS011;37565;51.352;6.412;2022-11-15T07:05:16;3.95;;;3.58;;
51485;SDS011;37565;51.352;6.412;2022-11-15T07:07:50;4.18;;;3.70;;
51485;SDS011;37565;51.352;6.412;2022-11-15T07:10:19;4.05;;;3.65;;
51485;SDS011;37565;51.352;6.412;2022-11-15T07:12:48;3.75;;;3.35;;
51485;SDS011;37565;51.352;6.412;2022-11-15T07:15:16;4.90;;;4.05;;
51485;SDS011;37565;51.352;6.412;2022-11-15T07:17:46;4.07;;;3.67;;
51485;SDS011;37565;51.352;6.412;2022-11-15T07:20:14;5.63;;;3.83;;
51485;SDS011;37565;51.352;6.412;2022-11-15T07:22:43;4.97;;;4.15;;
51485;SDS011;37565;51.352;6.412;2022-11-15T07:25:12;4.30;;;3.90;;
51485;SDS011;37565;51.352;6.412;2022-11-15T07:27:40;4.38;;;3.60;;
51485;SDS011;37565;51.352;6.412;2022-11-15T07:30:08;4.35;;;3.63;;
51485;SDS011;37565;51.352;6.412;2022-11-15T07:32:42;5.60;;;3.97;;
51485;SDS011;37565;51.352;6.412;2022-11-15T07:35:10;5.43;;;3.72;;
51485;SDS011;37565;51.352;6.412;2022-11-15T07:37:37;3.80;;;3.50;;
51485;SDS011;37565;51.352;6.412;2022-11-15T07:40:06;4.15;;;3.72;;
51485;SDS011;37565;51.352;6.412;2022-11-15T07:42:35;4.38;;;3.50;;
51485;SDS011;37565;51.352;6.412;2022-11-15T07:45:22;3.50;;;3.20;;
51485;SDS011;37565;51.352;6.412;2022-11-15T07:47:53;5.57;;;3.40;;
51485;SDS011;37565;51.352;6.412;2022-11-15T07:50:22;3.15;;;2.80;;
51485;SDS011;37565;51.352;6.412;2022-11-15T07:52:54;4.82;;;3.55;;
51485;SDS011;37565;51.352;6.412;2022-11-15T07:55:22;3.45;;;3.08;;
51485;SDS011;37565;51.352;6.412;2022-11-15T07:57:50;3.75;;;3.08;;
51485;SDS011;37565;51.352;6.412;2022-11-15T08:00:19;3.95;;;2.72;;
51485;SDS011;37565;51.352;6.412;2022-11-15T08:02:47;3.53;;;3.17;;
51485;SDS011;37565;51.352;6.412;2022-11-15T08:05:16;3.17;;;2.63;;
51485;SDS011;37565;51.352;6.412;2022-11-15T08:07:44;3.88;;;3.00;;
51485;SDS011;37565;51.352;6.412;2022-11-15T08:10:12;3.17;;;2.78;;
51485;SDS011;37565;51.352;6.412;2022-11-15T08:12:42;3.67;;;2.88;;
51485;SDS011;37565;51.352;6.412;2022-11-15T08:15:10;3.28;;;2.90;;
51485;SDS011;37565;51.352;6.412;2022-11-15T08:17:38;3.00;;;2.70;;
51485;SDS011;37565;51.352;6.412;2022-11-15T08:20:07;5.80;;;2.67;;
51485;SDS011;37565;51.352;6.412;2022-11-15T08:22:37;6.47;;;3.10;;
51485;SDS011;37565;51.352;6.412;2022-11-15T08:25:05;3.70;;;2.97;;
51485;SDS011;37565;51.352;6.412;2022-11-15T08:27:33;3.08;;;2.75;;
51485;SDS011;37565;51.352;6.412;2022-11-15T08:30:02;3.75;;;2.70;;
51485;SDS011;37565;51.352;6.412;2022-11-15T08:32:30;7.38;;;2.78;;
51485;SDS011;37565;51.352;6.412;2022-11-15T08:34:58;5.13;;;2.50;;
51485;SDS011;37565;51.352;6.412;2022-11-15T08:37:26;5.57;;;2.60;;
51485;SDS011;37565;51.352;6.412;2022-11-15T08:39:56;2.88;;;2.45;;
51485;SDS011;37565;51.352;6.412;2022-11-15T08:42:24;5.95;;;2.70;;
51485;SDS011;37565;51.352;6.412;2022-11-15T08:44:51;3.45;;;2.60;;
51485;SDS011;37565;51.352;6.412;2022-11-15T08:47:19;3.13;;;2.40;;
51485;SDS011;37565;51.352;6.412;2022-11-15T08:49:47;2.83;;;2.53;;
51485;SDS011;37565;51.352;6.412;2022-11-15T08:52:15;6.05;;;2.63;;
51485;SDS011;37565;51.352;6.412;2022-11-15T08:54:43;6.05;;;2.60;;
51485;SDS011;37565;51.352;6.412;2022-11-15T08:57:12;3.35;;;2.50;;
51485;SDS011;37565;51.352;6.412;2022-11-15T08:59:40;3.60;;;2.25;;
51485;SDS011;37565;51.352;6.412;2022-11-15T09:02:10;5.03;;;2.45;;
51485;SDS011;37565;51.352;6.412;2022-11-15T09:04:40;2.40;;;2.03;;
51485;SDS011;37565;51.352;6.412;2022-11-15T09:07:10;2.40;;;2.20;;
51485;SDS011;37565;51.352;6.412;2022-11-15T09:09:38;4.40;;;2.45;;
51485;SDS011;37565;51.352;6.412;2022-11-15T09:12:07;12.10;;;2.42;;
51485;SDS011;37565;51.352;6.412;2022-11-15T09:14:37;2.33;;;2.08;;
51485;SDS011;37565;51.352;6.412;2022-11-15T09:17:07;2.10;;;1.90;;
51485;SDS011;37565;51.352;6.412;2022-11-15T09:19:35;3.00;;;2.17;;
51485;SDS011;37565;51.352;6.412;2022-11-15T09:22:05;2.05;;;1.60;;
51485;SDS011;37565;51.352;6.412;2022-11-15T09:24:34;3.22;;;1.80;;
51485;SDS011;37565;51.352;6.412;2022-11-15T09:27:02;3.97;;;1.98;;
51485;SDS011;37565;51.352;6.412;2022-11-15T09:29:30;4.85;;;1.77;;
51485;SDS011;37565;51.352;6.412;2022-11-15T09:31:59;2.03;;;1.70;;
51485;SDS011;37565;51.352;6.412;2022-11-15T09:34:27;2.15;;;1.92;;
51485;SDS011;37565;51.352;6.412;2022-11-15T09:36:55;5.10;;;1.70;;
51485;SDS011;37565;51.352;6.412;2022-11-15T09:39:23;1.58;;;1.42;;
51485;SDS011;37565;51.352;6.412;2022-11-15T09:41:55;2.28;;;1.42;;
51485;SDS011;37565;51.352;6.412;2022-11-15T09:44:37;2.50;;;1.70;;
51485;SDS011;37565;51.352;6.412;2022-11-15T09:47:17;2.70;;;1.77;;
51485;SDS011;37565;51.352;6.412;2022-11-15T09:50:00;2.40;;;1.70;;
51485;SDS011;37565;51.352;6.412;2022-11-15T09:52:35;4.82;;;1.40;;
51485;SDS011;37565;51.352;6.412;2022-11-15T09:55:07;2.05;;;1.88;;
51485;SDS011;37565;51.352;6.412;2022-11-15T09:57:38;2.60;;;1.70;;
51485;SDS011;37565;51.352;6.412;2022-11-15T10:00:12;1.85;;;1.60;;
51485;SDS011;37565;51.352;6.412;2022-11-15T10:03:09;2.05;;;1.50;;
51485;SDS011;37565;51.352;6.412;2022-11-15T10:05:40;2.33;;;1.40;;
51485;SDS011;37565;51.352;6.412;2022-11-15T10:08:16;3.33;;;1.45;;
51485;SDS011;37565;51.352;6.412;2022-11-15T10:10:57;2.13;;;1.80;;
51485;SDS011;37565;51.352;6.412;2022-11-15T10:13:46;2.65;;;1.77;;
51485;SDS011;37565;51.352;6.412;2022-11-15T10:19:16;2.22;;;1.42;;
51485;SDS011;37565;51.352;6.412;2022-11-15T10:21:56;4.65;;;1.60;;
51485;SDS011;37565;51.352;6.412;2022-11-15T10:24:34;2.85;;;2.00;;
51485;SDS011;37565;51.352;6.412;2022-11-15T10:27:07;2.33;;;1.80;;
51485;SDS011;37565;51.352;6.412;2022-11-15T10:29:42;1.95;;;1.50;;
51485;SDS011;37565;51.352;6.412;2022-11-15T10:32:11;1.27;;;1.17;;
51485;SDS011;37565;51.352;6.412;2022-11-15T10:34:41;1.45;;;1.35;;
51485;SDS011;37565;51.352;6.412;2022-11-15T10:37:09;1.77;;;1.40;;
51485;SDS011;37565;51.352;6.412;2022-11-15T10:39:37;5.90;;;1.80;;
51485;SDS011;37565;51.352;6.412;2022-11-15T10:42:15;1.95;;;1.45;;
51485;SDS011;37565;51.352;6.412;2022-11-15T10:44:44;3.38;;;1.50;;
51485;SDS011;37565;51.352;6.412;2022-11-15T10:47:23;5.25;;;1.50;;
51485;SDS011;37565;51.352;6.412;2022-11-15T10:49:55;4.07;;;1.55;;
51485;SDS011;37565;51.352;6.412;2022-11-15T10:52:28;4.53;;;1.42;;
51485;SDS011;37565;51.352;6.412;2022-11-15T10:54:59;3.25;;;1.67;;
51485;SDS011;37565;51.352;6.412;2022-11-15T10:57:31;4.38;;;1.40;;
51485;SDS011;37565;51.352;6.412;2022-11-15T11:00:03;3.03;;;1.60;;
51485;SDS011;37565;51.352;6.412;2022-11-15T11:02:35;2.72;;;1.42;;
51485;SDS011;37565;51.352;6.412;2022-11-15T11:05:06;2.13;;;1.30;;
51485;SDS011;37565;51.352;6.412;2022-11-15T11:07:56;3.10;;;1.50;;
51485;SDS011;37565;51.352;6.412;2022-11-15T11:10:25;3.05;;;1.50;;
51485;SDS011;37565;51.352;6.412;2022-11-15T11:13:14;4.07;;;1.33;;
51485;SDS011;37565;51.352;6.412;2022-11-15T11:15:51;2.30;;;1.40;;
51485;SDS011;37565;51.352;6.412;2022-11-15T11:18:28;2.92;;;1.45;;
51485;SDS011;37565;51.352;6.412;2022-11-15T11:21:04;3.05;;;1.30;;
51485;SDS011;37565;51.352;6.412;2022-11-15T11:23:41;2.33;;;1.45;;
51485;SDS011;37565;51.352;6.412;2022-11-15T11:26:18;3.90;;;1.52;;
51485;SDS011;37565;51.352;6.412;2022-11-15T11:29:01;2.05;;;1.27;;
51485;SDS011;37565;51.352;6.412;2022-11-15T11:31:36;3.05;;;1.20;;
51485;SDS011;37565;51.352;6.412;2022-11-15T11:34:15;1.30;;;1.20;;
51485;SDS011;37565;51.352;6.412;2022-11-15T11:36:54;4.80;;;1.35;;
51485;SDS011;37565;51.352;6.412;2022-11-15T11:39:31;1.92;;;1.23;;
51485;SDS011;37565;51.352;6.412;2022-11-15T11:42:10;6.25;;;1.20;;
51485;SDS011;37565;51.352;6.412;2022-11-15T11:44:47;2.13;;;1.25;;
51485;SDS011;37565;51.352;6.412;2022-11-15T11:47:28;1.45;;;1.15;;
51485;SDS011;37565;51.352;6.412;2022-11-15T11:50:00;1.98;;;1.10;;
51485;SDS011;37565;51.352;6.412;2022-11-15T11:52:41;10.65;;;1.80;;
51485;SDS011;37565;51.352;6.412;2022-11-15T11:55:16;1.90;;;1.27;;
51485;SDS011;37565;51.352;6.412;2022-11-15T11:57:50;3.35;;;1.83;;
51485;SDS011;37565;51.352;6.412;2022-11-15T12:00:24;2.85;;;1.20;;
51485;SDS011;37565;51.352;6.412;2022-11-15T12:03:00;2.50;;;1.30;;
51485;SDS011;37565;51.352;6.412;2022-11-15T12:05:34;3.88;;;1.20;;
51485;SDS011;37565;51.352;6.412;2022-11-15T12:08:14;2.33;;;1.30;;
51485;SDS011;37565;51.352;6.412;2022-11-15T12:10:50;2.95;;;1.40;;
51485;SDS011;37565;51.352;6.412;2022-11-15T12:15:56;3.08;;;1.50;;
51485;SDS011;37565;51.352;6.412;2022-11-15T12:18:34;1.13;;;1.02;;
51485;SDS011;37565;51.352;6.412;2022-11-15T12:21:03;1.40;;;1.10;;
51485;SDS011;37565;51.352;6.412;2022-11-15T12:23:37;2.70;;;1.25;;
51485;SDS011;37565;51.352;6.412;2022-11-15T12:26:09;3.13;;;1.20;;
51485;SDS011;37565;51.352;6.412;2022-11-15T12:28:45;3.00;;;1.17;;
51485;SDS011;37565;51.352;6.412;2022-11-15T12:31:37;4.78;;;1.38;;
51485;SDS011;37565;51.352;6.412;2022-11-15T12:34:13;1.27;;;1.10;;
51485;SDS011;37565;51.352;6.412;2022-11-15T12:36:57;2.30;;;1.25;;
51485;SDS011;37565;51.352;6.412;2022-11-15T12:42:40;4.78;;;1.20;;
51485;SDS011;37565;51.352;6.412;2022-11-15T12:45:24;0.93;;;0.93;;
51485;SDS011;37565;51.352;6.412;2022-11-15T12:47:53;1.60;;;0.98;;
51485;SDS011;37565;51.352;6.412;2022-11-15T12:53:27;1.15;;;0.98;;
51485;SDS011;37565;51.352;6.412;2022-11-15T12:56:09;1.90;;;1.23;;
51485;SDS011;37565;51.352;6.412;2022-11-15T12:58:52;1.20;;;1.10;;
51485;SDS011;37565;51.352;6.412;2022-11-15T13:01:52;2.55;;;2.00;;
51485;SDS011;37565;51.352;6.412;2022-11-15T13:04:26;1.10;;;1.00;;
51485;SDS011;37565;51.352;6.412;2022-11-15T13:06:56;4.07;;;1.10;;
51485;SDS011;37565;51.352;6.412;2022-11-15T13:18:33;8.30;;;1.00;;
51485;SDS011;37565;51.352;6.412;2022-11-15T13:21:04;3.83;;;1.00;;
51485;SDS011;37565;51.352;6.412;2022-11-15T13:24:03;6.65;;;1.30;;
51485;SDS011;37565;51.352;6.412;2022-11-15T13:26:31;6.20;;;1.30;;
51485;SDS011;37565;51.352;6.412;2022-11-15T13:28:59;5.35;;;1.50;;
51485;SDS011;37565;51.352;6.412;2022-11-15T13:31:30;9.48;;;1.67;;
51485;SDS011;37565;51.352;6.412;2022-11-15T13:34:12;13.40;;;3.17;;
51485;SDS011;37565;51.352;6.412;2022-11-15T13:37:13;11.07;;;2.60;;
51485;SDS011;37565;51.352;6.412;2022-11-15T13:40:09;15.90;;;2.50;;
51485;SDS011;37565;51.352;6.412;2022-11-15T13:42:46;8.13;;;2.70;;
51485;SDS011;37565;51.352;6.412;2022-11-15T13:45:15;14.70;;;3.88;;
51485;SDS011;37565;51.352;6.412;2022-11-15T13:47:51;13.20;;;2.58;;
51485;SDS011;37565;51.352;6.412;2022-11-15T13:50:23;22.52;;;2.95;;
51485;SDS011;37565;51.352;6.412;2022-11-15T13:52:56;15.10;;;2.90;;
51485;SDS011;37565;51.352;6.412;2022-11-15T13:55:27;11.68;;;3.58;;
51485;SDS011;37565;51.352;6.412;2022-11-15T13:57:59;14.52;;;3.25;;
51485;SDS011;37565;51.352;6.412;2022-11-15T14:00:33;18.35;;;3.67;;
51485;SDS011;37565;51.352;6.412;2022-11-15T14:03:18;11.40;;;3.17;;
51485;SDS011;37565;51.352;6.412;2022-11-15T14:06:00;16.10;;;3.57;;
51485;SDS011;37565;51.352;6.412;2022-11-15T14:08:32;14.13;;;3.08;;
51485;SDS011;37565;51.352;6.412;2022-11-15T14:14:05;13.35;;;3.58;;
51485;SDS011;37565;51.352;6.412;2022-11-15T14:16:40;20.85;;;5.07;;
51485;SDS011;37565;51.352;6.412;2022-11-15T14:19:11;22.73;;;3.50;;
51485;SDS011;37565;51.352;6.412;2022-11-15T14:22:14;11.50;;;3.17;;
51485;SDS011;37565;51.352;6.412;2022-11-15T14:24:47;16.92;;;3.85;;
51485;SDS011;37565;51.352;6.412;2022-11-15T14:27:30;13.75;;;3.13;;
51485;SDS011;37565;51.352;6.412;2022-11-15T14:29:58;14.88;;;3.83;;
51485;SDS011;37565;51.352;6.412;2022-11-15T14:32:27;21.13;;;4.05;;
51485;SDS011;37565;51.352;6.412;2022-11-15T14:34:57;18.25;;;3.92;;
51485;SDS011;37565;51.352;6.412;2022-11-15T14:37:28;13.38;;;3.22;;
51485;SDS011;37565;51.352;6.412;2022-11-15T14:39:57;12.48;;;3.60;;
51485;SDS011;37565;51.352;6.412;2022-11-15T14:42:25;18.15;;;3.75;;
51485;SDS011;37565;51.352;6.412;2022-11-15T14:44:53;15.82;;;3.17;;
51485;SDS011;37565;51.352;6.412;2022-11-15T14:47:21;15.65;;;3.58;;
51485;SDS011;37565;51.352;6.412;2022-11-15T14:49:49;10.98;;;3.35;;
51485;SDS011;37565;51.352;6.412;2022-11-15T14:52:23;15.90;;;3.58;;
51485;SDS011;37565;51.352;6.412;2022-11-15T14:54:59;18.48;;;3.35;;
51485;SDS011;37565;51.352;6.412;2022-11-15T14:57:29;12.98;;;3.00;;
51485;SDS011;37565;51.352;6.412;2022-11-15T14:59:57;16.60;;;3.65;;
51485;SDS011;37565;51.352;6.412;2022-11-15T15:02:26;15.75;;;3.10;;
51485;SDS011;37565;51.352;6.412;2022-11-15T15:04:54;15.63;;;4.03;;
51485;SDS011;37565;51.352;6.412;2022-11-15T15:07:27;11.65;;;3.03;;
51485;SDS011;37565;51.352;6.412;2022-11-15T15:09:55;12.88;;;2.95;;
51485;SDS011;37565;51.352;6.412;2022-11-15T15:12:44;11.65;;;2.92;;
51485;SDS011;37565;51.352;6.412;2022-11-15T15:15:13;15.52;;;3.60;;
51485;SDS011;37565;51.352;6.412;2022-11-15T15:17:43;12.88;;;3.05;;
51485;SDS011;37565;51.352;6.412;2022-11-15T15:20:11;10.60;;;3.03;;
51485;SDS011;37565;51.352;6.412;2022-11-15T15:22:39;13.73;;;3.47;;
51485;SDS011;37565;51.352;6.412;2022-11-15T15:25:14;16.33;;;3.28;;
51485;SDS011;37565;51.352;6.412;2022-11-15T15:27:50;20.48;;;3.08;;
51485;SDS011;37565;51.352;6.412;2022-11-15T15:30:18;10.68;;;2.55;;
51485;SDS011;37565;51.352;6.412;2022-11-15T15:32:47;12.38;;;2.65;;
51485;SDS011;37565;51.352;6.412;2022-11-15T15:35:15;11.55;;;2.90;;
51485;SDS011;37565;51.352;6.412;2022-11-15T15:37:44;14.30;;;3.10;;